Time;durP1;ratioP1;P1;durP2;ratioP2;P2;SDS_P1;SDS_P2;PMS_P1;PMS_P2;Temp;Humidity;BMP_temperature;BMP_pressure;BME280_temperature;BME280_humidity;BME280_pressure;Samples;Min_cycle;Max_cycle;Signal;HPM_P1;HPM_P2
2022/05/28 00:01:26;;;;;;;10.02;4.25;;;;;;;8.77;100.00;97821.94;5033033;28;20468;-58
2022/05/28 00:03:53;;;;;;;11.82;4.05;;;;;;;8.83;100.00;97825.03;5031116;28;20087;-57
2022/05/28 00:06:21;;;;;;;13.43;4.55;;;;;;;8.87;100.00;97826.50;5032696;28;20033;-57
2022/05/28 00:08:48;;;;;;;12.30;4.50;;;;;;;8.90;100.00;97823.72;5022624;28;20519;-55
2022/05/28 00:11:24;;;;;;;12.70;4.95;;;;;;;8.92;100.00;97828.84;5031495;28;20041;-58
2022/05/28 00:13:51;;;;;;;12.18;4.40;;;;;;;8.93;100.00;97814.97;5044677;28;20433;-59
2022/05/28 00:16:17;;;;;;;12.88;4.55;;;;;;;8.95;100.00;97820.88;5031731;28;20128;-55
2022/05/28 00:18:44;;;;;;;11.82;4.55;;;;;;;8.96;100.00;97821.72;5032928;28;20128;-60
2022/05/28 00:21:11;;;;;;;11.27;4.07;;;;;;;8.95;100.00;97814.88;5016380;28;20462;-58
2022/05/28 00:23:39;;;;;;;9.38;3.75;;;;;;;8.96;100.00;97821.72;5039542;28;20081;-57
2022/05/28 00:26:05;;;;;;;7.97;3.58;;;;;;;8.95;100.00;97820.88;5037915;28;20044;-57
2022/05/28 00:28:31;;;;;;;8.55;3.20;;;;;;;8.93;100.00;97815.81;5043479;28;20143;-57
2022/05/28 00:30:57;;;;;;;5.72;3.20;;;;;;;8.92;100.00;97803.75;5043143;28;20579;-55
2022/05/28 00:33:23;;;;;;;8.88;3.15;;;;;;;8.90;100.00;97805.59;5033716;28;20048;-57
2022/05/28 00:35:50;;;;;;;7.82;3.53;;;;;;;8.92;100.00;97802.91;5034111;28;20492;-55
2022/05/28 00:38:16;;;;;;;9.93;3.50;;;;;;;8.91;100.00;97794.31;5032652;28;20468;-56
2022/05/28 00:40:53;;;;;;;9.27;3.50;;;;;;;8.90;100.00;97791.81;5047868;28;20385;-56
2022/05/28 00:43:20;;;;;;;5.60;3.25;;;;;;;8.91;100.00;97801.25;5034211;28;20072;-56
2022/05/28 00:45:47;;;;;;;6.28;3.55;;;;;;;8.92;100.00;97798.56;5046403;28;20453;-57
2022/05/28 00:48:20;;;;;;;12.57;3.70;;;;;;;8.92;100.00;97793.41;5048734;28;20466;-58
2022/05/28 00:50:45;;;;;;;12.43;3.70;;;;;;;8.89;100.00;97793.59;5030876;28;20041;-56
2022/05/28 00:53:11;;;;;;;11.30;3.63;;;;;;;8.84;100.00;97787.84;5038465;28;20856;-56
2022/05/28 00:55:37;;;;;;;7.55;3.72;;;;;;;8.89;100.00;97796.19;5028375;28;20049;-56
2022/05/28 00:58:05;;;;;;;7.75;3.63;;;;;;;8.88;100.00;97791.91;5040542;28;20539;-56
2022/05/28 01:00:33;;;;;;;7.90;3.40;;;;;;;8.75;100.00;97779.72;5021219;28;20052;-59
2022/05/28 01:03:19;;;;;;;7.97;3.65;;;;;;;8.82;100.00;97792.25;5039527;28;20168;-57
2022/05/28 01:06:00;;;;;;;5.25;3.60;;;;;;;8.78;100.00;97780.41;5030037;28;20044;-56
2022/05/28 01:08:41;;;;;;;5.13;3.78;;;;;;;8.79;100.00;97779.47;5010963;28;20077;-56
2022/05/28 01:11:27;;;;;;;5.85;3.53;;;;;;;8.80;100.00;97780.31;4999213;28;20516;-57
2022/05/28 01:14:01;;;;;;;8.95;3.38;;;;;;;8.79;100.00;97784.66;5031077;28;20129;-57
2022/05/28 01:16:40;;;;;;;7.68;3.45;;;;;;;8.80;100.00;97775.97;5006457;28;20570;-57
2022/05/28 01:19:11;;;;;;;6.22;3.22;;;;;;;8.82;100.00;97773.28;5050526;28;20041;-57
2022/05/28 01:21:52;;;;;;;11.23;4.13;;;;;;;8.84;100.00;97766.28;5041273;28;20115;-58
2022/05/28 01:24:24;;;;;;;5.70;3.42;;;;;;;8.84;100.00;97761.94;5028927;28;20037;-56
2022/05/28 01:26:56;;;;;;;9.05;3.40;;;;;;;8.87;100.00;97758.31;5037960;28;20037;-56
2022/05/28 01:29:23;;;;;;;6.97;3.33;;;;;;;8.91;100.00;97762.38;5042941;28;20036;-57
2022/05/28 01:31:49;;;;;;;8.70;3.85;;;;;;;8.98;100.00;97761.13;5038124;28;20492;-53
2022/05/28 01:34:16;;;;;;;7.25;3.78;;;;;;;9.08;100.00;97761.41;5039661;28;20139;-56
2022/05/28 01:36:42;;;;;;;9.13;3.90;;;;;;;9.14;100.00;97754.09;5014878;28;20532;-57
2022/05/28 01:39:08;;;;;;;7.00;3.80;;;;;;;9.20;100.00;97758.94;5030149;28;20053;-56
2022/05/28 01:41:36;;;;;;;6.97;3.60;;;;;;;9.29;100.00;97763.56;5033546;28;20033;-56
2022/05/28 01:44:02;;;;;;;5.72;3.72;;;;;;;9.34;100.00;97761.53;5040063;28;20081;-56
2022/05/28 01:46:29;;;;;;;6.13;3.47;;;;;;;9.37;100.00;97759.69;5049808;28;20094;-56
2022/05/28 01:48:56;;;;;;;8.05;3.95;;;;;;;9.41;100.00;97759.41;5040688;28;20046;-57
2022/05/28 01:51:24;;;;;;;6.93;3.65;;;;;;;9.45;100.00;97755.69;5033386;28;20041;-57
2022/05/28 01:54:09;;;;;;;5.55;3.22;;;;;;;9.48;100.00;97750.31;5011369;28;20052;-57
2022/05/28 01:56:43;;;;;;;8.40;3.75;;;;;;;9.54;100.00;97755.13;5030073;28;20083;-56
2022/05/28 01:59:14;;;;;;;11.90;3.90;;;;;;;9.62;100.00;97752.06;5049125;28;20512;-57
2022/05/28 02:01:40;;;;;;;6.82;4.15;;;;;;;9.69;100.00;97755.94;5034412;28;20033;-56
2022/05/28 02:04:06;;;;;;;11.52;4.00;;;;;;;9.71;100.00;97752.34;5030189;28;20048;-56
2022/05/28 02:06:34;;;;;;;8.43;4.30;;;;;;;9.78;100.00;97739.81;5028742;28;20512;-57
2022/05/28 02:09:00;;;;;;;8.65;4.68;;;;;;;9.84;100.00;97744.59;5031092;28;20049;-55
2022/05/28 02:11:39;;;;;;;9.55;4.20;;;;;;;9.88;100.00;97740.06;5030970;28;20045;-57
2022/05/28 02:14:21;;;;;;;11.25;4.75;;;;;;;9.91;100.00;97724.31;5019051;28;20032;-58
2022/05/28 02:16:58;;;;;;;8.02;4.07;;;;;;;9.91;100.00;97726.91;5048104;28;20072;-58
2022/05/28 02:19:44;;;;;;;8.23;4.13;;;;;;;9.87;100.00;97738.41;5042126;28;20048;-57
2022/05/28 02:22:22;;;;;;;9.20;3.97;;;;;;;9.81;100.00;97726.66;5032078;28;20037;-58
2022/05/28 02:24:54;;;;;;;9.32;4.57;;;;;;;9.76;100.00;97721.75;5038471;28;20090;-57
2022/05/28 02:27:21;;;;;;;7.28;4.40;;;;;;;9.73;100.00;97723.72;5049742;28;20044;-55
2022/05/28 02:29:46;;;;;;;6.75;4.32;;;;;;;9.71;100.00;97722.97;5047774;28;20045;-56
2022/05/28 02:32:18;;;;;;;6.68;4.53;;;;;;;9.72;100.00;97722.88;5044778;28;20435;-57
2022/05/28 02:34:45;;;;;;;13.52;4.70;;;;;;;9.73;100.00;97718.53;5037516;28;20473;-57
2022/05/28 02:37:15;;;;;;;8.00;5.00;;;;;;;9.73;100.00;97716.72;5050696;28;20062;-54
2022/05/28 02:39:41;;;;;;;6.65;4.32;;;;;;;9.74;100.00;97715.81;5033900;28;20068;-57
2022/05/28 02:42:07;;;;;;;9.90;4.72;;;;;;;9.79;100.00;97718.09;5030593;28;20061;-57
2022/05/28 02:44:33;;;;;;;10.82;5.60;;;;;;;9.97;100.00;97723.91;5030818;28;20087;-57
2022/05/28 02:46:59;;;;;;;11.05;5.63;;;;;;;10.08;100.00;97721.47;5015686;28;20083;-57
2022/05/28 02:49:25;;;;;;;10.20;6.15;;;;;;;10.21;100.00;97717.19;5032308;28;20099;-58
2022/05/28 02:51:52;;;;;;;10.82;6.18;;;;;;;10.35;100.00;97719.75;5039958;28;20037;-57
2022/05/28 02:54:19;;;;;;;12.10;6.32;;;;;;;10.46;100.00;97719.06;5042284;28;20083;-58
2022/05/28 02:56:45;;;;;;;12.57;5.75;;;;;;;10.61;100.00;97723.25;5050243;28;20121;-57
2022/05/28 02:59:12;;;;;;;9.63;6.20;;;;;;;10.78;100.00;97715.16;5045588;28;20053;-58
2022/05/28 03:01:37;;;;;;;10.93;6.22;;;;;;;10.89;100.00;97709.22;5034882;28;20037;-56
2022/05/28 03:04:05;;;;;;;8.80;5.63;;;;;;;10.98;100.00;97722.47;5042605;28;20033;-57
2022/05/28 03:06:31;;;;;;;10.02;5.80;;;;;;;11.09;100.00;97721.75;5054377;28;20033;-55
2022/05/28 03:08:57;;;;;;;9.85;5.50;;;;;;;11.19;100.00;97727.16;5047553;28;20041;-56
2022/05/28 03:11:23;;;;;;;11.38;4.90;;;;;;;11.30;100.00;97719.44;5036083;28;20048;-57
2022/05/28 03:13:49;;;;;;;9.52;5.28;;;;;;;11.41;100.00;97720.34;5043649;28;20417;-56
2022/05/28 03:16:16;;;;;;;8.57;5.38;;;;;;;11.53;100.00;97710.88;5039577;28;20041;-57
2022/05/28 03:18:42;;;;;;;9.88;5.50;;;;;;;11.64;100.00;97712.72;5050276;28;20052;-56
2022/05/28 03:21:08;;;;;;;7.15;3.80;;;;;;;11.62;100.00;97694.59;5050228;28;20041;-55
2022/05/28 03:23:34;;;;;;;8.30;4.35;;;;;;;11.74;100.00;97709.41;5029211;28;20103;-55
2022/05/28 03:26:14;;;;;;;6.45;3.38;;;;;;;11.72;100.00;97703.44;5034826;28;20512;-56
2022/05/28 03:28:40;;;;;;;5.00;3.28;;;;;;;11.67;100.00;97699.53;5043211;28;20071;-55
2022/05/28 03:31:06;;;;;;;6.95;3.90;;;;;;;11.70;100.00;97691.47;5042929;28;20034;-54
2022/05/28 03:33:31;;;;;;;7.22;3.60;;;;;;;11.72;100.00;97689.63;5043722;28;20060;-56
2022/05/28 03:35:57;;;;;;;9.00;3.83;;;;;;;11.75;100.00;97690.25;5046316;28;20087;-54
2022/05/28 03:38:23;;;;;;;7.10;3.70;;;;;;;11.78;100.00;97681.38;5036109;28;20079;-56
2022/05/28 03:40:49;;;;;;;7.43;3.15;;;;;;;11.80;100.00;97672.53;5035075;28;20044;-57
2022/05/28 03:43:15;;;;;;;8.10;3.45;;;;;;;11.85;100.00;97672.19;5034602;28;20037;-54
2022/05/28 03:45:41;;;;;;;8.07;4.10;;;;;;;11.89;100.00;97676.25;5046792;28;20142;-56
2022/05/28 03:48:08;;;;;;;6.28;3.38;;;;;;;11.99;100.00;97692.88;5041572;28;20063;-52
2022/05/28 03:50:33;;;;;;;9.15;3.58;;;;;;;11.99;100.00;97695.47;5033482;28;20084;-53
2022/05/28 03:52:59;;;;;;;10.23;3.70;;;;;;;11.96;100.00;97693.09;5034377;28;20041;-56
2022/05/28 03:55:25;;;;;;;9.25;3.60;;;;;;;11.93;99.02;97697.69;5032197;28;20602;-57
2022/05/28 03:57:51;;;;;;;9.18;3.90;;;;;;;12.02;100.00;97678.81;5050917;28;20414;-54
2022/05/28 04:00:17;;;;;;;8.75;3.47;;;;;;;12.05;93.00;97679.41;5051751;28;20044;-54
2022/05/28 04:02:43;;;;;;;12.68;3.88;;;;;;;12.18;91.90;97689.78;5045980;28;20044;-56
2022/05/28 04:05:10;;;;;;;9.25;4.43;;;;;;;12.22;92.67;97689.44;5039692;28;20036;-56
2022/05/28 04:07:36;;;;;;;8.70;4.10;;;;;;;12.37;95.68;97690.09;5051578;28;20033;-57
2022/05/28 04:10:05;;;;;;;7.88;3.60;;;;;;;12.54;98.46;97678.44;5045722;28;20111;-56
2022/05/28 04:12:32;;;;;;;6.43;4.10;;;;;;;12.62;99.01;97666.47;5047217;28;20049;-57
2022/05/28 04:14:58;;;;;;;8.68;3.60;;;;;;;12.65;99.55;97668.88;5019397;28;20037;-57
2022/05/28 04:17:24;;;;;;;7.35;3.80;;;;;;;12.82;100.00;97677.22;5034049;28;20583;-59
2022/05/28 04:19:50;;;;;;;10.57;4.10;;;;;;;12.85;99.70;97680.41;5041481;28;20045;-58
2022/05/28 04:22:16;;;;;;;11.07;4.20;;;;;;;12.82;98.20;97672.00;5043056;28;20045;-56
2022/05/28 04:24:42;;;;;;;7.18;4.05;;;;;;;12.78;98.70;97676.59;5031108;28;20103;-57
2022/05/28 04:27:08;;;;;;;7.55;4.32;;;;;;;12.77;97.73;97680.13;5048689;28;20064;-57
2022/05/28 04:29:34;;;;;;;6.07;3.53;;;;;;;12.67;98.08;97661.75;5042246;28;20087;-56
2022/05/28 04:32:02;;;;;;;9.15;3.60;;;;;;;12.83;98.40;97678.84;5025996;28;20057;-57
2022/05/28 04:34:30;;;;;;;7.22;3.90;;;;;;;12.87;97.40;97677.69;5043430;28;20036;-58
2022/05/28 04:36:56;;;;;;;8.82;4.18;;;;;;;12.93;95.15;97667.59;5046340;28;20043;-56
2022/05/28 04:39:21;;;;;;;8.85;4.25;;;;;;;13.02;96.70;97669.53;5045077;28;20071;-59
2022/05/28 04:41:47;;;;;;;7.45;3.42;;;;;;;13.33;98.84;97667.19;5041774;28;20068;-58
2022/05/28 04:44:13;;;;;;;9.07;3.28;;;;;;;13.58;96.68;97665.16;5043504;28;20091;-57
2022/05/28 04:46:39;;;;;;;6.55;3.42;;;;;;;13.71;95.34;97645.94;5033668;28;20087;-58
2022/05/28 04:49:05;;;;;;;4.85;3.38;;;;;;;14.19;95.98;97665.47;5032482;28;20053;-58
2022/05/28 04:51:31;;;;;;;8.98;3.45;;;;;;;14.49;94.45;97663.97;5032483;28;20052;-59
2022/05/28 04:53:56;;;;;;;8.00;3.55;;;;;;;14.70;92.15;97663.03;5046338;28;20041;-57
2022/05/28 04:56:23;;;;;;;7.82;3.03;;;;;;;14.83;84.61;97666.28;5043317;28;20424;-57
2022/05/28 04:58:49;;;;;;;4.68;3.40;;;;;;;14.87;87.60;97674.69;5034309;28;20049;-57
2022/05/28 05:01:16;;;;;;;9.10;3.70;;;;;;;14.89;87.95;97670.16;5045286;28;20195;-59
2022/05/28 05:03:42;;;;;;;6.43;3.10;;;;;;;14.76;85.30;97672.13;5031943;28;20071;-57
2022/05/28 05:06:08;;;;;;;7.28;3.30;;;;;;;14.68;85.71;97664.94;5050333;28;20045;-57
2022/05/28 05:08:34;;;;;;;7.22;3.08;;;;;;;14.88;87.59;97665.88;5048210;28;20463;-58
2022/05/28 05:11:00;;;;;;;4.93;2.97;;;;;;;14.88;86.19;97660.66;5030863;28;20052;-58
2022/05/28 05:13:26;;;;;;;12.38;3.35;;;;;;;15.24;85.57;97670.63;5016648;28;20136;-58
2022/05/28 05:15:52;;;;;;;5.80;2.83;;;;;;;15.50;86.58;97671.00;5044004;28;20077;-57
2022/05/28 05:18:18;;;;;;;4.38;2.70;;;;;;;15.52;85.38;97663.06;5033066;28;20037;-58
2022/05/28 05:20:44;;;;;;;5.45;2.88;;;;;;;15.38;82.30;97672.06;5011113;28;20042;-56
2022/05/28 05:23:09;;;;;;;8.25;2.67;;;;;;;15.12;79.29;97669.06;5037186;28;20045;-59
2022/05/28 05:25:35;;;;;;;7.32;3.40;;;;;;;14.89;81.81;97674.56;5046909;28;20497;-56
2022/05/28 05:28:01;;;;;;;6.38;2.80;;;;;;;14.59;80.44;97643.97;5047196;28;20045;-57
2022/05/28 05:30:27;;;;;;;7.25;3.22;;;;;;;14.74;82.06;97666.22;5017053;28;20055;-59
2022/05/28 05:32:53;;;;;;;6.15;2.85;;;;;;;14.68;81.95;97656.25;5030898;28;20133;-56
2022/05/28 05:35:19;;;;;;;7.75;2.92;;;;;;;14.66;76.52;97671.25;5037819;28;20123;-58
2022/05/28 05:37:44;;;;;;;5.35;2.53;;;;;;;14.55;77.29;97668.72;5016973;28;20033;-58
2022/05/28 05:40:11;;;;;;;9.02;2.60;;;;;;;14.40;76.55;97674.22;5041512;28;20132;-58
2022/05/28 05:42:37;;;;;;;14.68;2.92;;;;;;;14.40;80.92;97663.75;5038082;28;20041;-58
2022/05/28 05:45:03;;;;;;;5.30;2.40;;;;;;;14.64;84.25;97667.94;5030437;28;20045;-55
2022/05/28 05:47:29;;;;;;;6.93;3.03;;;;;;;14.71;77.30;97672.53;5011465;28;20038;-57
2022/05/28 05:49:55;;;;;;;11.02;2.95;;;;;;;14.77;80.93;97650.25;5043907;28;20215;-57
2022/05/28 05:52:21;;;;;;;12.25;3.42;;;;;;;14.96;83.67;97649.56;5046484;28;20043;-58
2022/05/28 05:54:47;;;;;;;6.18;2.78;;;;;;;15.29;84.33;97665.00;5039175;28;20045;-57
2022/05/28 05:57:13;;;;;;;6.85;2.88;;;;;;;15.37;78.20;97661.72;5045532;28;20060;-58
2022/05/28 05:59:38;;;;;;;9.05;2.78;;;;;;;15.06;73.54;97673.97;5030731;28;20076;-58
2022/05/28 06:02:06;;;;;;;6.07;2.85;;;;;;;14.88;79.14;97676.34;5030684;28;20056;-58
2022/05/28 06:04:32;;;;;;;9.90;3.08;;;;;;;14.62;78.78;97668.06;5029515;28;20056;-56
2022/05/28 06:06:58;;;;;;;6.10;2.95;;;;;;;14.47;77.65;97658.88;5034277;28;20409;-58
2022/05/28 06:09:25;;;;;;;3.92;2.47;;;;;;;14.32;74.25;97666.16;5038803;28;20094;-58
2022/05/28 06:11:51;;;;;;;4.32;2.30;;;;;;;14.20;74.46;97674.97;5036730;28;20095;-58
2022/05/28 06:14:17;;;;;;;8.38;2.58;;;;;;;14.13;75.45;97678.22;5038197;28;20045;-59
2022/05/28 06:16:43;;;;;;;6.47;2.60;;;;;;;13.92;74.98;97678.97;5032906;28;20033;-59
2022/05/28 06:19:09;;;;;;;2.78;1.80;;;;;;;13.81;68.65;97678.19;5049106;28;20049;-59
2022/05/28 06:21:36;;;;;;;8.77;2.13;;;;;;;13.78;71.70;97678.41;5010934;28;20045;-62
2022/05/28 06:24:02;;;;;;;12.68;2.30;;;;;;;13.86;74.28;97676.03;5029938;28;20045;-57
2022/05/28 06:26:28;;;;;;;7.97;1.98;;;;;;;13.96;75.45;97685.63;5035507;28;20091;-58
2022/05/28 06:28:54;;;;;;;6.22;2.17;;;;;;;13.94;76.41;97690.16;5032230;28;20044;-59
2022/05/28 06:31:20;;;;;;;7.35;2.28;;;;;;;13.98;71.84;97696.78;5027175;28;20425;-58
2022/05/28 06:33:46;;;;;;;6.90;1.80;;;;;;;13.95;72.76;97685.75;5024842;28;20079;-57
2022/05/28 06:36:13;;;;;;;4.65;1.70;;;;;;;13.87;75.22;97693.38;5028572;28;20425;-58
2022/05/28 06:38:41;;;;;;;7.70;2.00;;;;;;;13.72;74.68;97684.97;5012727;28;20613;-57
2022/05/28 06:41:07;;;;;;;3.22;1.35;;;;;;;13.58;69.29;97688.66;5029233;28;20048;-58
2022/05/28 06:43:33;;;;;;;4.85;1.88;;;;;;;13.57;76.05;97671.31;5028885;28;20509;-59
2022/05/28 06:46:01;;;;;;;2.80;1.70;;;;;;;13.75;76.29;97694.34;5029661;28;20044;-55
2022/05/28 06:48:27;;;;;;;4.45;1.55;;;;;;;13.77;77.61;97689.81;5029464;28;20072;-57
2022/05/28 06:51:02;;;;;;;6.43;1.73;;;;;;;13.71;76.18;97695.53;5029352;28;20052;-58
2022/05/28 06:53:48;;;;;;;5.93;1.80;;;;;;;13.58;74.94;97673.00;5030080;28;20041;-58
2022/05/28 06:56:16;;;;;;;9.38;2.35;;;;;;;13.71;75.71;97693.72;5030286;28;20033;-56
2022/05/28 06:58:45;;;;;;;5.45;1.95;;;;;;;13.80;78.99;97692.19;5029761;28;20141;-58
2022/05/28 07:01:13;;;;;;;6.22;1.80;;;;;;;13.93;73.75;97698.09;5061532;28;20033;-56
2022/05/28 07:03:43;;;;;;;4.57;2.25;;;;;;;13.93;78.57;97692.88;5028631;28;20061;-59
2022/05/28 07:06:10;;;;;;;3.85;1.73;;;;;;;13.81;73.40;97692.09;5030054;28;20029;-58
2022/05/28 07:08:36;;;;;;;7.20;2.20;;;;;;;13.75;75.97;97696.94;5029913;28;20420;-58
2022/05/28 07:11:05;;;;;;;10.80;2.35;;;;;;;13.69;77.59;97682.59;5032945;28;20057;-59
2022/05/28 07:13:33;;;;;;;6.18;1.92;;;;;;;13.85;76.36;97706.56;5028836;28;20478;-59
2022/05/28 07:15:59;;;;;;;4.85;1.88;;;;;;;13.76;72.20;97709.06;5030526;28;20042;-58
2022/05/28 07:18:25;;;;;;;7.10;1.70;;;;;;;13.72;72.65;97703.22;5028757;28;20428;-58
2022/05/28 07:20:51;;;;;;;4.53;2.00;;;;;;;13.79;74.11;97707.03;5049915;28;20037;-58
2022/05/28 07:23:24;;;;;;;6.50;1.80;;;;;;;13.72;73.63;97699.78;5030198;28;20136;-58
2022/05/28 07:25:54;;;;;;;6.05;1.92;;;;;;;13.90;76.27;97719.25;5029818;28;20049;-56
2022/05/28 07:28:27;;;;;;;5.18;1.95;;;;;;;14.05;73.46;97725.03;5029196;28;20048;-58
2022/05/28 07:31:00;;;;;;;5.45;1.88;;;;;;;14.19;78.86;97729.97;5047335;28;21948;-58
2022/05/28 07:33:27;;;;;;;4.20;1.83;;;;;;;14.03;72.95;97730.38;5031564;28;20509;-58
2022/05/28 07:35:54;;;;;;;10.10;2.15;;;;;;;13.87;76.09;97740.41;5028987;28;20051;-59
2022/05/28 07:38:21;;;;;;;4.15;1.80;;;;;;;13.79;76.54;97738.38;5028661;28;20029;-57
2022/05/28 07:40:46;;;;;;;3.40;1.95;;;;;;;13.59;75.80;97723.44;5034646;28;20033;-58
2022/05/28 07:43:12;;;;;;;7.63;2.20;;;;;;;13.55;75.34;97737.69;5040614;28;20133;-58
2022/05/28 07:45:41;;;;;;;6.35;1.80;;;;;;;13.57;74.91;97744.44;5034564;28;20040;-59
2022/05/28 07:48:07;;;;;;;6.45;2.22;;;;;;;13.64;78.74;97746.56;5048769;28;20049;-58
2022/05/28 07:50:33;;;;;;;3.03;1.60;;;;;;;13.62;69.48;97745.84;5036204;28;20472;-59
2022/05/28 07:52:59;;;;;;;7.10;1.80;;;;;;;13.37;68.97;97728.66;5034325;28;20136;-59
2022/05/28 07:55:26;;;;;;;8.60;1.98;;;;;;;13.48;71.10;97749.53;5038936;28;20519;-57
2022/05/28 07:57:52;;;;;;;5.90;2.03;;;;;;;13.57;70.21;97754.03;5043168;28;20064;-59
2022/05/28 08:00:18;;;;;;;5.57;2.15;;;;;;;13.70;75.38;97741.72;5035115;28;20501;-59
2022/05/28 08:02:44;;;;;;;3.22;1.65;;;;;;;14.01;76.89;97755.81;5045447;28;20044;-59
2022/05/28 08:05:10;;;;;;;4.00;1.60;;;;;;;14.37;71.52;97763.38;5038497;28;20167;-57
2022/05/28 08:07:36;;;;;;;7.80;1.80;;;;;;;14.59;72.27;97761.63;5042518;28;20041;-57
2022/05/28 08:10:03;;;;;;;4.72;1.52;;;;;;;14.97;73.46;97756.69;5031617;28;20103;-59
2022/05/28 08:12:29;;;;;;;2.95;1.58;;;;;;;15.55;71.75;97765.75;5033015;28;20176;-58
2022/05/28 08:14:55;;;;;;;5.05;1.35;;;;;;;15.72;61.70;97768.72;5032381;28;20045;-57
2022/05/28 08:17:21;;;;;;;5.07;1.92;;;;;;;16.01;66.73;97774.91;4996459;28;20033;-58
2022/05/28 08:19:46;;;;;;;4.05;1.65;;;;;;;15.70;59.48;97775.91;5033300;28;20179;-59
2022/05/28 08:24:57;;;;;;;6.35;2.15;;;;;;;15.44;70.57;97773.66;5032728;28;20056;-59
2022/05/28 08:27:23;;;;;;;5.78;1.92;;;;;;;15.45;71.96;97777.09;5045535;28;20064;-58
2022/05/28 08:29:49;;;;;;;9.23;2.13;;;;;;;15.42;68.77;97777.38;5033526;28;20413;-58
2022/05/28 08:32:18;;;;;;;7.00;1.95;;;;;;;15.31;68.40;97774.81;5029357;28;20041;-58
2022/05/28 08:34:45;;;;;;;5.63;1.63;;;;;;;15.14;64.10;97771.81;5036667;28;20048;-59
2022/05/28 08:37:13;;;;;;;3.70;1.73;;;;;;;15.20;66.81;97780.97;5029482;28;20037;-59
2022/05/28 08:39:41;;;;;;;11.85;2.03;;;;;;;15.34;64.37;97782.41;5046457;28;20040;-59
2022/05/28 08:42:09;;;;;;;3.05;1.50;;;;;;;15.35;61.49;97787.53;5052273;28;20049;-57
2022/05/28 08:44:40;;;;;;;5.38;1.63;;;;;;;15.20;63.13;97787.03;5050956;28;20047;-58
2022/05/28 08:47:15;;;;;;;9.02;1.95;;;;;;;15.44;64.05;97791.19;5032305;28;20449;-57
2022/05/28 08:49:41;;;;;;;6.30;1.70;;;;;;;15.87;61.38;97788.38;5035730;28;20041;-58
2022/05/28 08:52:07;;;;;;;2.97;1.60;;;;;;;16.85;59.17;97794.56;5034236;28;20041;-59
2022/05/28 08:54:33;;;;;;;3.83;1.45;;;;;;;17.52;54.62;97791.88;5029835;28;20424;-58
2022/05/28 08:57:06;;;;;;;4.22;1.70;;;;;;;17.74;53.58;97804.66;5039503;28;20041;-56
2022/05/28 08:59:40;;;;;;;2.15;1.42;;;;;;;17.29;55.42;97795.75;5032826;28;20048;-58
2022/05/28 09:02:07;;;;;;;3.15;1.60;;;;;;;16.67;56.42;97793.56;5014184;28;20452;-59
2022/05/28 09:04:39;;;;;;;6.63;2.17;;;;;;;16.21;56.82;97809.88;5030861;28;20056;-58
2022/05/28 09:07:08;;;;;;;4.05;1.60;;;;;;;15.78;57.97;97810.13;5030616;28;20086;-58
2022/05/28 09:09:41;;;;;;;3.40;1.83;;;;;;;15.55;58.39;97819.91;5021361;28;20099;-58
2022/05/28 09:12:47;;;;;;;6.93;2.20;;;;;;;15.16;61.12;97818.81;5030177;28;20049;-59
2022/05/28 09:15:13;;;;;;;5.30;2.03;;;;;;;14.78;62.31;97821.94;5006805;28;20057;-55
2022/05/28 09:17:45;;;;;;;8.57;2.83;;;;;;;14.63;63.60;97817.97;5029914;28;20029;-59
2022/05/28 09:20:22;;;;;;;9.45;2.50;;;;;;;14.62;63.42;97817.13;5031332;28;20065;-57
2022/05/28 09:22:49;;;;;;;4.78;2.00;;;;;;;14.54;62.25;97810.84;5031506;28;20049;-60
2022/05/28 09:25:20;;;;;;;4.63;2.35;;;;;;;14.52;63.26;97828.44;5031558;28;20057;-59
2022/05/28 09:28:06;;;;;;;7.22;2.42;;;;;;;14.72;63.40;97825.06;5031879;28;20033;-57
2022/05/28 09:30:46;;;;;;;5.90;2.10;;;;;;;14.98;61.61;97823.78;5029721;28;20040;-60
2022/05/28 09:33:45;;;;;;;4.00;2.03;;;;;;;15.34;58.47;97827.75;5029988;28;20048;-59
2022/05/28 09:36:20;;;;;;;4.63;1.67;;;;;;;15.88;56.85;97824.09;5031644;28;20037;-62
2022/05/28 09:39:02;;;;;;;4.22;1.70;;;;;;;16.45;55.72;97828.72;5029248;28;20394;-55
2022/05/28 09:41:54;;;;;;;8.32;2.88;;;;;;;17.45;51.78;97826.72;5028334;28;20436;-58
2022/05/28 09:44:29;;;;;;;2.80;1.70;;;;;;;18.08;50.27;97840.97;5015713;28;20489;-49
2022/05/28 09:47:14;;;;;;;4.60;1.95;;;;;;;18.10;51.19;97839.03;5031494;28;20041;-59
2022/05/28 09:49:47;;;;;;;3.22;1.70;;;;;;;19.08;48.49;97849.69;5028822;28;20049;-63
2022/05/28 09:52:13;;;;;;;2.25;1.73;;;;;;;19.69;47.48;97840.97;5029022;28;20041;-60
2022/05/28 09:54:39;;;;;;;6.40;1.73;;;;;;;20.51;45.54;97846.56;5036419;28;20041;-59
2022/05/28 09:57:27;;;;;;;3.35;2.00;;;;;;;20.71;44.39;97857.66;5040774;28;20041;-59
2022/05/28 10:00:01;;;;;;;2.60;1.70;;;;;;;19.52;45.93;97849.75;5029781;28;20041;-59
2022/05/28 10:05:53;;;;;;;3.35;1.67;;;;;;;18.78;48.01;97864.03;5031142;28;20049;-60
2022/05/28 10:08:19;;;;;;;5.10;1.92;;;;;;;18.56;47.36;97869.72;5030873;28;20041;-62
2022/05/28 10:10:55;;;;;;;6.55;2.00;;;;;;;18.53;48.01;97867.31;5030722;28;20037;-60
2022/05/28 10:13:24;;;;;;;3.75;1.73;;;;;;;18.18;48.30;97874.13;5029714;28;20083;-60
2022/05/28 10:15:52;;;;;;;3.17;1.55;;;;;;;18.16;48.41;97885.78;5030542;28;20044;-60
2022/05/28 10:18:22;;;;;;;8.18;1.73;;;;;;;18.08;48.29;97883.03;5030029;28;20456;-59
2022/05/28 10:21:12;;;;;;;5.20;1.40;;;;;;;18.23;47.91;97886.84;5030064;28;20033;-60
2022/05/28 10:23:40;;;;;;;5.78;1.70;;;;;;;17.96;48.63;97887.63;5029185;28;20040;-61
2022/05/28 10:26:15;;;;;;;8.83;1.90;;;;;;;17.90;49.29;97877.69;5028942;28;20052;-59
2022/05/28 10:28:48;;;;;;;3.58;1.88;;;;;;;17.63;49.88;97883.72;5028639;28;20064;-60
2022/05/28 10:31:17;;;;;;;2.58;1.42;;;;;;;17.18;51.07;97888.66;5028681;28;20044;-60
2022/05/28 10:33:44;;;;;;;3.40;1.35;;;;;;;16.73;51.84;97858.63;5014819;28;20049;-60
2022/05/28 10:36:14;;;;;;;3.65;1.70;;;;;;;16.93;52.30;97887.41;5026716;28;20033;-56
2022/05/28 10:38:40;;;;;;;3.85;1.92;;;;;;;17.06;52.00;97879.25;5030939;28;20131;-58
2022/05/28 10:41:17;;;;;;;3.70;2.20;;;;;;;17.32;51.13;97884.81;5029080;28;20410;-58
2022/05/28 10:43:43;;;;;;;3.55;1.85;;;;;;;17.66;50.19;97890.47;5030647;28;20073;-58
2022/05/28 10:46:14;;;;;;;6.70;2.15;;;;;;;17.86;48.47;97897.34;5030616;28;20073;-59
2022/05/28 10:49:02;;;;;;;3.20;1.40;;;;;;;18.35;46.00;97892.75;5032093;28;20037;-59
2022/05/28 10:51:42;;;;;;;4.63;1.50;;;;;;;18.96;44.85;97893.00;5048785;28;20079;-61
2022/05/28 10:54:26;;;;;;;4.55;1.88;;;;;;;19.69;42.27;97898.97;5040119;28;20559;-54
2022/05/28 10:56:54;;;;;;;3.38;1.30;;;;;;;20.77;39.84;97887.88;5039666;28;20052;-60
2022/05/28 11:00:02;;;;;;;4.18;1.20;;;;;;;21.67;36.40;97893.16;5009326;28;20095;-59
2022/05/28 11:02:49;;;;;;;2.75;1.10;;;;;;;22.12;35.82;97890.00;5027177;28;20056;-58
2022/05/28 11:05:17;;;;;;;1.95;1.17;;;;;;;22.83;34.66;97899.69;5039145;28;20037;-58
2022/05/28 11:07:56;;;;;;;1.60;0.80;;;;;;;21.97;35.37;97883.75;5031613;28;20048;-59
2022/05/28 11:10:22;;;;;;;4.38;1.48;;;;;;;20.98;37.69;97885.63;5019423;28;20041;-60
2022/05/28 11:13:22;;;;;;;3.78;1.10;;;;;;;21.32;36.85;97886.38;5022996;28;20416;-60
2022/05/28 11:16:28;;;;;;;3.65;1.30;;;;;;;20.51;38.06;97885.31;5013495;28;20060;-60
2022/05/28 11:19:13;;;;;;;2.28;1.00;;;;;;;19.60;40.22;97898.09;5027059;28;20100;-58
2022/05/28 11:21:51;;;;;;;4.10;1.00;;;;;;;19.43;40.69;97883.09;5030039;28;20059;-59
2022/05/28 11:24:45;;;;;;;3.00;0.93;;;;;;;19.33;40.98;97895.50;5025944;28;20037;-58
2022/05/28 11:27:30;;;;;;;1.60;0.82;;;;;;;19.18;40.93;97894.38;5027439;28;20094;-59
2022/05/28 11:30:19;;;;;;;2.10;1.10;;;;;;;18.81;42.15;97887.44;5017084;28;20565;-61
2022/05/28 11:32:49;;;;;;;1.48;0.75;;;;;;;18.43;42.71;97896.31;5026139;28;20045;-60
2022/05/28 11:35:38;;;;;;;4.65;1.05;;;;;;;18.04;43.67;97889.56;5008354;28;20409;-59
2022/05/28 11:38:16;;;;;;;3.13;1.00;;;;;;;17.67;44.71;97903.47;5064683;28;20069;-59
2022/05/28 11:41:00;;;;;;;3.37;1.30;;;;;;;17.38;45.71;97909.69;5026231;28;20029;-55
2022/05/28 11:43:29;;;;;;;2.13;1.10;;;;;;;17.08;46.58;97914.06;5025975;28;20092;-59
2022/05/28 11:46:01;;;;;;;;;;;;;;;17.11;46.91;97926.13;5028427;28;20096;-60
2022/05/28 11:51:37;;;;;;;5.50;1.70;;;;;;;21.91;40.02;97934.66;5017290;28;20429;-59
2022/05/28 11:54:15;;;;;;;29.90;3.72;;;;;;;23.58;37.93;97935.22;5029623;28;20049;-61